createdAt,value
2023-05-05T00:01:59.780Z,101796.72
2023-05-05T00:04:03.376Z,101795.06
2023-05-05T00:06:08.184Z,101799.53
2023-05-05T00:08:11.589Z,101801.34
2023-05-05T00:10:14.925Z,101789.34
2023-05-05T00:12:18.843Z,101789.47
2023-05-05T00:14:24.014Z,101787.94
2023-05-05T00:16:27.474Z,101786.22
2023-05-05T00:18:30.886Z,101788.97
2023-05-05T00:20:34.289Z,101787.34
2023-05-05T00:22:37.628Z,101782.19
2023-05-05T00:24:40.970Z,101772.78
2023-05-05T00:26:44.377Z,101784.16
2023-05-05T00:28:49.352Z,101777.28
2023-05-05T00:30:54.096Z,101774.72
2023-05-05T00:32:57.656Z,101771.34
2023-05-05T00:35:01.218Z,101774.94
2023-05-05T00:37:04.895Z,101768.06
2023-05-05T00:39:08.277Z,101769.91
2023-05-05T00:41:11.705Z,101767.38
2023-05-05T00:43:15.048Z,101764.88
2023-05-05T00:45:19.832Z,101764.97
2023-05-05T00:47:24.746Z,101763.38
2023-05-05T00:49:28.095Z,101761.69
2023-05-05T00:51:32.119Z,101759.97
2023-05-05T00:53:35.913Z,101754.88
2023-05-05T00:55:39.398Z,101761.09
2023-05-05T00:57:43.032Z,101768.09
2023-05-05T00:59:47.688Z,101768.16
2023-05-05T01:01:51.447Z,101760.44
2023-05-05T01:03:57.224Z,101764.06
2023-05-05T01:06:10.603Z,101760.59
2023-05-05T01:08:28.220Z,101765.03
2023-05-05T01:10:39.578Z,101765.16
2023-05-05T01:12:52.699Z,101766.97
2023-05-05T01:15:05.234Z,101759.22
2023-05-05T01:17:15.459Z,101754.91
2023-05-05T01:19:48.512Z,101746.28
2023-05-05T01:22:00.652Z,101750.72
2023-05-05T01:24:40.999Z,101741.22
2023-05-05T01:27:00.311Z,101748.28
2023-05-05T01:29:32.781Z,101754.50
2023-05-05T01:31:57.174Z,101751.94
2023-05-05T01:34:04.013Z,101758.06
2023-05-05T01:36:22.708Z,101752.91
2023-05-05T01:38:33.608Z,101753.88
2023-05-05T01:40:43.671Z,101748.72
2023-05-05T01:42:48.026Z,101754.84
2023-05-05T01:44:53.627Z,101749.75
2023-05-05T01:47:00.835Z,101741.06
2023-05-05T01:49:06.173Z,101748.91
2023-05-05T01:51:10.845Z,101748.97
2023-05-05T01:53:14.906Z,101738.53
2023-05-05T01:55:20.016Z,101735.13
2023-05-05T01:57:26.574Z,101729.06
2023-05-05T01:59:30.898Z,101729.13
2023-05-05T02:01:38.676Z,101727.41
2023-05-05T02:03:46.925Z,101727.41
2023-05-05T02:05:53.253Z,101724.88
2023-05-05T02:08:00.132Z,101722.31
2023-05-05T02:10:06.255Z,101734.47
2023-05-05T02:12:11.009Z,101722.38
2023-05-05T02:14:16.592Z,101718.06
2023-05-05T02:16:21.412Z,101715.50
2023-05-05T02:18:27.196Z,101722.56
2023-05-05T02:20:32.959Z,101713.97
2023-05-05T02:22:36.298Z,101712.41
2023-05-05T02:24:39.729Z,101715.13
2023-05-05T02:26:47.230Z,101718.66
2023-05-05T02:28:56.912Z,101714.47
2023-05-05T02:31:02.094Z,101708.44
2023-05-05T02:33:09.409Z,101705.97
2023-05-05T02:35:16.432Z,101702.56
2023-05-05T02:37:25.646Z,101700.97
2023-05-05T02:39:36.783Z,101697.63
2023-05-05T02:41:48.470Z,101692.50
2023-05-05T02:44:02.762Z,101694.34
2023-05-05T02:46:07.971Z,101703.19
2023-05-05T02:48:13.096Z,101698.94
2023-05-05T02:50:17.031Z,101698.22
2023-05-05T02:52:30.819Z,101694.03
2023-05-05T02:54:34.679Z,101698.44
2023-05-05T02:56:45.502Z,101695.03
2023-05-05T02:58:54.549Z,101693.34
2023-05-05T03:01:08.781Z,101690.78
2023-05-05T03:03:19.432Z,101689.25
2023-05-05T03:05:29.514Z,101688.41
2023-05-05T03:07:42.095Z,101691.06
2023-05-05T03:09:52.699Z,101691.97
2023-05-05T03:12:01.094Z,101689.41
2023-05-05T03:14:10.014Z,101686.94
2023-05-05T03:16:16.680Z,101684.31
2023-05-05T03:18:23.771Z,101682.69
2023-05-05T03:20:33.677Z,101680.91
2023-05-05T03:22:44.025Z,101682.72
2023-05-05T03:24:51.605Z,101682.72
2023-05-05T03:26:58.880Z,101678.47
2023-05-05T03:29:09.149Z,101668.91
2023-05-05T03:31:15.960Z,101668.13
2023-05-05T03:33:20.502Z,101665.56
2023-05-05T03:35:24.110Z,101651.72
2023-05-05T03:37:27.470Z,101659.59
2023-05-05T03:39:32.376Z,101657.91
2023-05-05T03:41:36.371Z,101657.91
2023-05-05T03:43:41.400Z,101663.22
2023-05-05T03:45:45.324Z,101669.34
2023-05-05T03:47:49.057Z,101664.13
2023-05-05T03:49:52.533Z,101671.88
2023-05-05T03:51:55.878Z,101674.50
2023-05-05T03:53:59.301Z,101668.34
2023-05-05T03:56:04.068Z,101668.22
2023-05-05T03:58:07.869Z,101674.22
2023-05-05T04:00:12.311Z,101675.03
2023-05-05T04:02:21.061Z,101675.81
2023-05-05T04:04:25.036Z,101676.59
2023-05-05T04:06:28.894Z,101667.88
2023-05-05T04:08:32.455Z,101667.75
2023-05-05T04:10:35.866Z,101668.63
2023-05-05T04:12:41.538Z,101664.25
2023-05-05T04:14:45.004Z,101660.72
2023-05-05T04:16:48.429Z,101660.72
2023-05-05T04:18:51.815Z,101662.44
2023-05-05T04:20:55.129Z,101668.44
2023-05-05T04:22:59.301Z,101670.06
2023-05-05T04:25:02.869Z,101668.31
2023-05-05T04:27:06.270Z,101670.78
2023-05-05T04:29:11.018Z,101663.88
2023-05-05T04:31:14.385Z,101665.56
2023-05-05T04:33:19.656Z,101664.66
2023-05-05T04:35:24.803Z,101664.53
2023-05-05T04:37:28.964Z,101663.63
2023-05-05T04:39:33.972Z,101656.69
2023-05-05T04:41:37.450Z,101650.56
2023-05-05T04:43:41.012Z,101659.19
2023-05-05T04:45:54.730Z,101665.19
2023-05-05T04:48:01.066Z,101662.47
2023-05-05T04:50:04.507Z,101666.78
2023-05-05T04:52:08.305Z,101664.97
2023-05-05T04:54:12.870Z,101674.38
2023-05-05T04:56:16.262Z,101668.25
2023-05-05T04:58:20.183Z,101679.47
2023-05-05T05:00:24.096Z,101681.94
2023-05-05T05:02:28.900Z,101682.66
2023-05-05T05:04:32.292Z,101690.34
2023-05-05T05:06:35.934Z,101684.97
2023-05-05T05:08:39.423Z,101680.47
2023-05-05T05:10:43.626Z,101670.75
2023-05-05T05:12:48.815Z,101674.03
2023-05-05T05:14:52.217Z,101670.34
2023-05-05T05:16:55.638Z,101660.56
2023-05-05T05:19:02.086Z,101665.53
2023-05-05T05:21:06.808Z,101659.25
2023-05-05T05:23:10.532Z,101651.22
2023-05-05T05:25:18.471Z,101664.09
2023-05-05T05:27:23.814Z,101657.06
2023-05-05T05:29:29.551Z,101653.53
2023-05-05T05:31:35.134Z,101652.59
2023-05-05T05:33:38.769Z,101654.38
2023-05-05T05:35:44.162Z,101655.22
2023-05-05T05:37:48.013Z,101658.63
2023-05-05T05:39:54.104Z,101660.31
2023-05-05T05:41:59.680Z,101668.94
2023-05-05T05:44:03.471Z,101668.03
2023-05-05T05:46:09.002Z,101671.50
2023-05-05T05:48:14.450Z,101672.22
2023-05-05T05:50:17.980Z,101679.00
2023-05-05T05:52:23.069Z,101675.34
2023-05-05T05:54:26.661Z,101684.59
2023-05-05T05:56:30.178Z,101675.56
2023-05-05T05:58:33.769Z,101675.16
2023-05-05T06:00:37.463Z,101680.88
2023-05-05T06:02:44.590Z,101677.06
2023-05-05T06:04:51.695Z,101669.75
2023-05-05T06:06:55.617Z,101663.25
2023-05-05T06:09:00.572Z,101675.94
2023-05-05T06:11:05.047Z,101668.59
2023-05-05T06:13:08.597Z,101666.47
2023-05-05T06:15:14.632Z,101665.16
2023-05-05T06:17:18.075Z,101662.19
2023-05-05T06:19:21.563Z,101653.97
2023-05-05T06:21:25.607Z,101664.84
2023-05-05T06:23:29.086Z,101662.69
2023-05-05T06:25:38.928Z,101657.94
2023-05-05T06:27:42.250Z,101652.56
2023-05-05T06:29:45.555Z,101644.72
2023-05-05T06:31:49.052Z,101654.16
2023-05-05T06:33:52.465Z,101652.16
2023-05-05T06:35:55.822Z,101643.16
2023-05-05T06:37:59.146Z,101651.63
2023-05-05T06:40:02.517Z,101639.00
2023-05-05T06:42:08.174Z,101648.25
2023-05-05T06:44:11.798Z,101654.81
2023-05-05T06:46:15.392Z,101658.81
2023-05-05T06:48:19.453Z,101650.53
2023-05-05T06:50:22.844Z,101648.34
2023-05-05T06:52:27.033Z,101643.56
2023-05-05T06:54:30.452Z,101639.44
2023-05-05T06:56:33.723Z,101639.78
2023-05-05T06:58:38.458Z,101636.69
2023-05-05T07:00:42.283Z,101643.88
2023-05-05T07:02:47.566Z,101642.28
2023-05-05T07:04:51.978Z,101653.69
2023-05-05T07:06:55.633Z,101652.34
2023-05-05T07:08:59.080Z,101657.22
2023-05-05T07:11:02.517Z,101659.59
2023-05-05T07:13:05.940Z,101668.06
2023-05-05T07:15:23.804Z,101669.41
2023-05-05T07:17:31.869Z,101660.44
2023-05-05T07:19:35.444Z,101662.03
2023-05-05T07:21:39.758Z,101664.47
2023-05-05T07:23:43.318Z,101654.81
2023-05-05T07:25:46.881Z,101660.91
2023-05-05T07:27:50.378Z,101662.59
2023-05-05T07:29:53.735Z,101658.09
2023-05-05T07:31:58.582Z,101665.00
2023-05-05T07:34:01.934Z,101672.63
2023-05-05T07:36:05.986Z,101688.22
2023-05-05T07:38:10.787Z,101687.88
2023-05-05T07:40:14.995Z,101692.75
2023-05-05T07:42:18.334Z,101696.78
2023-05-05T07:44:21.827Z,101694.00
2023-05-05T07:46:25.169Z,101701.53
2023-05-05T07:48:30.259Z,101708.97
2023-05-05T07:50:33.613Z,101706.72
2023-05-05T07:52:46.643Z,101701.09
2023-05-05T07:54:53.090Z,101695.66
2023-05-05T07:56:57.381Z,101707.69
2023-05-05T07:59:01.034Z,101707.13
2023-05-05T08:01:06.563Z,101709.41
2023-05-05T08:03:11.889Z,101715.97
2023-05-05T08:05:17.499Z,101718.25
2023-05-05T08:07:20.963Z,101715.31
2023-05-05T08:09:24.244Z,101712.59
2023-05-05T08:11:29.556Z,101705.47
2023-05-05T08:13:33.065Z,101716.66
2023-05-05T08:15:36.471Z,101722.56
2023-05-05T08:17:50.042Z,101727.38
2023-05-05T08:19:53.995Z,101723.31
2023-05-05T08:22:01.115Z,101718.53
2023-05-05T08:24:04.950Z,101723.50
2023-05-05T08:26:09.268Z,101725.03
2023-05-05T08:28:12.653Z,101721.84
2023-05-05T08:30:19.592Z,101713.91
2023-05-05T08:32:23.019Z,101711.97
2023-05-05T08:34:26.366Z,101688.97
2023-05-05T08:36:29.782Z,101695.09
2023-05-05T08:38:34.581Z,101693.56
2023-05-05T08:40:39.493Z,101688.41
2023-05-05T08:42:43.098Z,101682.75
2023-05-05T08:44:46.409Z,101689.50
2023-05-05T08:46:50.896Z,101685.91
2023-05-05T08:48:56.473Z,101677.06
2023-05-05T08:51:02.624Z,101680.53
2023-05-05T08:53:11.599Z,101676.84
2023-05-05T08:55:25.674Z,101670.75
2023-05-05T08:57:34.173Z,101674.97
2023-05-05T08:59:39.394Z,101666.09
2023-05-05T09:01:43.943Z,101667.78
2023-05-05T09:03:47.272Z,101665.47
2023-05-05T09:05:53.289Z,101662.22
2023-05-05T09:07:56.892Z,101660.88
2023-05-05T09:10:01.066Z,101668.34
2023-05-05T09:12:06.329Z,101655.56
2023-05-05T09:14:09.865Z,101650.50
2023-05-05T09:16:13.318Z,101651.88
2023-05-05T09:18:16.698Z,101646.97
2023-05-05T09:20:20.048Z,101645.81
2023-05-05T09:22:34.542Z,101650.66
2023-05-05T09:24:37.911Z,101652.16
2023-05-05T09:26:43.800Z,101652.78
2023-05-05T09:28:54.304Z,101641.16
2023-05-05T09:30:58.069Z,101640.91
2023-05-05T09:33:02.296Z,101643.44
2023-05-05T09:35:06.608Z,101637.31
2023-05-05T09:37:10.073Z,101645.97
2023-05-05T09:39:13.465Z,101630.34
2023-05-05T09:41:17.016Z,101632.50
2023-05-05T09:43:22.165Z,101625.00
2023-05-05T09:45:28.431Z,101638.13
2023-05-05T09:47:38.095Z,101636.34
2023-05-05T09:49:41.638Z,101645.00
2023-05-05T09:51:45.625Z,101638.59
2023-05-05T09:53:49.295Z,101640.91
2023-05-05T09:55:56.256Z,101628.13
2023-05-05T09:58:18.008Z,101623.25
2023-05-05T10:00:22.250Z,101618.44
2023-05-05T10:02:33.990Z,101623.91
2023-05-05T10:04:37.360Z,101612.53
2023-05-05T10:06:42.366Z,101621.06
2023-05-05T10:08:46.563Z,101611.25
2023-05-05T10:10:53.176Z,101612.72
2023-05-05T10:12:58.670Z,101612.50
2023-05-05T10:15:03.962Z,101611.16
2023-05-05T10:17:11.211Z,101612.34
2023-05-05T10:19:17.715Z,101617.78
2023-05-05T10:21:22.820Z,101619.56
2023-05-05T10:23:32.723Z,101608.22
2023-05-05T10:25:43.321Z,101619.63
2023-05-05T10:27:51.711Z,101620.50
2023-05-05T10:29:58.707Z,101628.31
2023-05-05T10:32:24.438Z,101632.34
2023-05-05T10:34:40.565Z,101613.50
2023-05-05T10:36:44.638Z,101634.44
2023-05-05T10:38:48.167Z,101631.97
2023-05-05T10:40:51.770Z,101633.16
2023-05-05T10:42:56.382Z,101628.38
2023-05-05T10:44:59.883Z,101626.00
2023-05-05T10:47:04.580Z,101630.72
2023-05-05T10:49:15.892Z,101639.50
2023-05-05T10:51:40.722Z,101639.63
2023-05-05T10:53:57.648Z,101637.22
2023-05-05T10:56:10.023Z,101634.72
2023-05-05T10:58:35.026Z,101634.72
2023-05-05T11:00:52.068Z,101627.88
2023-05-05T11:03:21.376Z,101623.91
2023-05-05T11:05:25.014Z,101613.34
2023-05-05T11:07:29.803Z,101617.63
2023-05-05T11:09:33.316Z,101607.03
2023-05-05T11:12:04.679Z,101600.25
2023-05-05T11:14:22.448Z,101592.75
2023-05-05T11:16:47.842Z,101584.94
2023-05-05T11:18:51.432Z,101583.84
2023-05-05T11:21:19.095Z,101582.50
2023-05-05T11:23:27.307Z,101574.31
2023-05-05T11:25:49.033Z,101576.13
2023-05-05T11:28:08.312Z,101582.28
2023-05-05T11:30:13.247Z,101581.44
2023-05-05T11:32:16.868Z,101584.31
2023-05-05T11:34:28.129Z,101587.22
2023-05-05T11:36:41.996Z,101584.09
2023-05-05T11:39:06.264Z,101582.69
2023-05-05T11:41:14.536Z,101580.72
2023-05-05T11:43:20.464Z,101576.88
2023-05-05T11:45:25.477Z,101579.41
2023-05-05T11:47:30.994Z,101582.88
2023-05-05T11:49:35.811Z,101581.91
2023-05-05T11:51:39.429Z,101582.75
2023-05-05T11:53:47.702Z,101573.38
2023-05-05T11:56:07.626Z,101574.88
2023-05-05T11:58:19.659Z,101571.16
2023-05-05T12:00:35.555Z,101566.34
2023-05-05T12:02:39.056Z,101560.81
2023-05-05T12:04:43.221Z,101562.53
2023-05-05T12:06:47.406Z,101547.38
2023-05-05T12:08:51.034Z,101546.91
2023-05-05T12:11:04.227Z,101549.19
2023-05-05T12:13:19.369Z,101551.59
2023-05-05T12:15:29.923Z,101548.00
2023-05-05T12:17:45.020Z,101552.22
2023-05-05T12:19:53.393Z,101564.25
2023-05-05T12:21:56.972Z,101555.09
2023-05-05T12:24:00.998Z,101553.63
2023-05-05T12:26:07.854Z,101552.44
2023-05-05T12:28:11.608Z,101544.03
2023-05-05T12:30:17.663Z,101540.03
2023-05-05T12:32:26.105Z,101546.66
2023-05-05T12:34:29.620Z,101542.53
2023-05-05T12:36:34.097Z,101544.50
2023-05-05T12:38:37.691Z,101540.41
2023-05-05T12:40:48.285Z,101536.31
2023-05-05T12:42:53.808Z,101540.00
2023-05-05T12:44:57.227Z,101535.81
2023-05-05T12:47:00.611Z,101545.66
2023-05-05T12:49:05.786Z,101534.34
2023-05-05T12:51:17.425Z,101540.59
2023-05-05T12:53:23.779Z,101545.66
2023-05-05T12:55:37.435Z,101546.16
2023-05-05T12:58:02.971Z,101549.06
2023-05-05T13:00:18.615Z,101546.53
2023-05-05T13:02:23.280Z,101536.22
2023-05-05T13:04:28.098Z,101543.78
2023-05-05T13:06:31.707Z,101539.13
2023-05-05T13:08:44.200Z,101539.97
2023-05-05T13:10:59.448Z,101533.72
2023-05-05T13:13:04.645Z,101535.50
2023-05-05T13:15:09.512Z,101535.25
2023-05-05T13:17:14.873Z,101530.78
2023-05-05T13:19:18.274Z,101525.50
2023-05-05T13:21:21.694Z,101532.47
2023-05-05T13:23:25.844Z,101527.19
2023-05-05T13:25:29.520Z,101530.56
2023-05-05T13:27:33.037Z,101532.25
2023-05-05T13:29:36.541Z,101533.09
2023-05-05T13:31:40.220Z,101532.84
2023-05-05T13:33:45.101Z,101537.06
2023-05-05T13:35:48.507Z,101522.75
2023-05-05T13:37:51.846Z,101525.16
2023-05-05T13:40:04.577Z,101531.06
2023-05-05T13:42:08.179Z,101512.19
2023-05-05T13:44:11.555Z,101530.31
2023-05-05T13:46:20.038Z,101529.00
2023-05-05T13:48:23.816Z,101517.06
2023-05-05T13:50:29.214Z,101514.44
2023-05-05T13:52:33.154Z,101507.44
2023-05-05T13:54:37.622Z,101497.06
2023-05-05T13:56:41.034Z,101495.16
2023-05-05T13:58:44.316Z,101487.69
2023-05-05T14:00:47.769Z,101492.78
2023-05-05T14:02:51.306Z,101487.50
2023-05-05T14:04:54.672Z,101485.56
2023-05-05T14:06:59.422Z,101484.88
2023-05-05T14:09:05.861Z,101487.94
2023-05-05T14:11:09.468Z,101490.06
2023-05-05T14:13:12.919Z,101494.38
2023-05-05T14:15:16.472Z,101487.53
2023-05-05T14:17:23.778Z,101488.25
2023-05-05T14:19:27.674Z,101480.88
2023-05-05T14:21:31.728Z,101495.09
2023-05-05T14:23:36.601Z,101486.69
2023-05-05T14:25:40.075Z,101492.78
2023-05-05T14:27:43.394Z,101489.94
2023-05-05T14:29:46.701Z,101484.44
2023-05-05T14:31:51.393Z,101490.63
2023-05-05T14:33:54.794Z,101489.75
2023-05-05T14:35:58.240Z,101490.50
2023-05-05T14:38:01.531Z,101483.06
2023-05-05T14:40:07.973Z,101479.31
2023-05-05T14:42:11.279Z,101483.66
2023-05-05T14:44:14.619Z,101484.63
2023-05-05T14:46:18.950Z,101476.75
2023-05-05T14:48:22.795Z,101482.16
2023-05-05T14:50:26.140Z,101477.66
2023-05-05T14:52:29.513Z,101477.69
2023-05-05T14:54:32.850Z,101478.28
2023-05-05T14:56:37.621Z,101476.44
2023-05-05T14:58:40.985Z,101464.03
2023-05-05T15:00:44.340Z,101472.78
2023-05-05T15:02:48.412Z,101470.63
2023-05-05T15:04:53.014Z,101464.03
2023-05-05T15:06:56.633Z,101465.16
2023-05-05T15:08:59.960Z,101460.94
2023-05-05T15:11:04.346Z,101463.00
2023-05-05T15:13:09.096Z,101469.25
2023-05-05T15:15:13.040Z,101470.00
2023-05-05T15:17:16.338Z,101453.03
2023-05-05T15:19:19.763Z,101452.53
2023-05-05T15:21:23.182Z,101452.78
2023-05-05T15:23:26.665Z,101445.06
2023-05-05T15:25:29.974Z,101433.69
2023-05-05T15:27:33.408Z,101439.94
2023-05-05T15:29:38.168Z,101442.44
2023-05-05T15:31:41.633Z,101436.81
2023-05-05T15:33:48.518Z,101433.69
2023-05-05T15:35:51.816Z,101433.94
2023-05-05T15:37:55.349Z,101438.50
2023-05-05T15:39:58.678Z,101435.38
2023-05-05T15:42:03.807Z,101444.03
2023-05-05T15:44:07.372Z,101441.63
2023-05-05T15:46:14.193Z,101441.13
2023-05-05T15:48:17.527Z,101439.00
2023-05-05T15:50:21.156Z,101442.09
2023-05-05T15:52:24.514Z,101443.31
2023-05-05T15:54:27.876Z,101451.81
2023-05-05T15:56:31.201Z,101440.16
2023-05-05T15:58:34.524Z,101444.44
2023-05-05T16:00:37.958Z,101444.41
2023-05-05T16:02:42.683Z,101441.88
2023-05-05T16:04:46.218Z,101436.66
2023-05-05T16:06:49.572Z,101433.75
2023-05-05T16:08:52.965Z,101433.59
2023-05-05T16:10:56.976Z,101432.47
2023-05-05T16:13:00.299Z,101425.38
2023-05-05T16:15:03.741Z,101429.50
2023-05-05T16:17:07.762Z,101434.53
2023-05-05T16:19:12.574Z,101425.38
2023-05-05T16:21:16.246Z,101429.38
2023-05-05T16:23:19.602Z,101428.00
2023-05-05T16:25:23.573Z,101422.34
2023-05-05T16:27:27.200Z,101431.66
2023-05-05T16:29:30.734Z,101436.63
2023-05-05T16:31:34.128Z,101431.78
2023-05-05T16:33:40.796Z,101432.13
2023-05-05T16:35:46.364Z,101446.56
2023-05-05T16:37:49.800Z,101445.19
2023-05-05T16:39:53.084Z,101452.69
2023-05-05T16:41:56.384Z,101448.78
2023-05-05T16:43:59.716Z,101453.56
2023-05-05T16:46:03.722Z,101447.75
2023-05-05T16:48:09.037Z,101451.44
2023-05-05T16:50:12.953Z,101464.91
2023-05-05T16:52:17.684Z,101459.13
2023-05-05T16:54:21.005Z,101471.53
2023-05-05T16:56:24.368Z,101470.19
2023-05-05T16:58:27.736Z,101481.78
2023-05-05T17:00:31.183Z,101470.69
2023-05-05T17:02:45.224Z,101471.84
2023-05-05T17:04:48.680Z,101472.25
2023-05-05T17:06:51.975Z,101486.56
2023-05-05T17:08:56.791Z,101482.47
2023-05-05T17:11:00.108Z,101481.09
2023-05-05T17:13:03.480Z,101485.78
2023-05-05T17:15:08.553Z,101489.66
2023-05-05T17:17:12.093Z,101482.19
2023-05-05T17:19:15.418Z,101461.53
2023-05-05T17:21:18.771Z,101466.22
2023-05-05T17:23:22.265Z,101471.88
2023-05-05T17:25:27.192Z,101462.50
2023-05-05T17:27:30.513Z,101465.31
2023-05-05T17:29:36.912Z,101466.50
2023-05-05T17:31:40.322Z,101460.69
2023-05-05T17:34:08.780Z,101467.06
2023-05-05T17:36:12.202Z,101456.84
2023-05-05T17:38:15.600Z,101463.16
2023-05-05T17:40:18.881Z,101466.91
2023-05-05T17:42:23.752Z,101458.69
2023-05-05T17:44:27.196Z,101473.34
2023-05-05T17:46:30.527Z,101472.22
2023-05-05T17:48:33.937Z,101475.53
2023-05-05T17:50:37.251Z,101473.38
2023-05-05T17:52:42.082Z,101475.63
2023-05-05T17:54:46.216Z,101482.19
2023-05-05T17:56:49.498Z,101479.19
2023-05-05T17:58:54.397Z,101488.34
2023-05-05T18:00:57.823Z,101487.78
2023-05-05T18:03:02.347Z,101482.72
2023-05-05T18:05:06.452Z,101487.47
2023-05-05T18:07:12.088Z,101493.00
2023-05-05T18:09:16.700Z,101488.88
2023-05-05T18:11:21.330Z,101486.50
2023-05-05T18:13:24.713Z,101495.44
2023-05-05T18:15:30.071Z,101487.75
2023-05-05T18:17:33.594Z,101494.00
2023-05-05T18:19:37.100Z,101494.09
2023-05-05T18:21:40.521Z,101492.50
2023-05-05T18:23:43.948Z,101496.13
2023-05-05T18:25:47.236Z,101498.94
2023-05-05T18:27:50.673Z,101494.72
2023-05-05T18:29:54.065Z,101493.09
2023-05-05T18:31:58.985Z,101495.06
2023-05-05T18:34:02.630Z,101493.38
2023-05-05T18:36:06.735Z,101499.66
2023-05-05T18:38:10.194Z,101502.53
2023-05-05T18:40:13.910Z,101503.66
2023-05-05T18:42:17.351Z,101516.09
2023-05-05T18:44:20.883Z,101518.81
2023-05-05T18:46:24.476Z,101528.53
2023-05-05T18:48:29.330Z,101528.63
2023-05-05T18:50:33.335Z,101536.56
2023-05-05T18:52:37.076Z,101529.72
2023-05-05T18:54:41.105Z,101538.50
2023-05-05T18:56:44.519Z,101539.44
2023-05-05T18:58:48.091Z,101543.03
2023-05-05T19:00:51.966Z,101545.72
2023-05-05T19:02:55.546Z,101554.53
2023-05-05T19:05:00.396Z,101552.00
2023-05-05T19:07:03.889Z,101547.69
2023-05-05T19:09:07.304Z,101546.06
2023-05-05T19:11:10.735Z,101558.41
2023-05-05T19:13:14.083Z,101559.44
2023-05-05T19:15:18.391Z,101557.75
2023-05-05T19:17:21.682Z,101558.75
2023-05-05T19:19:24.979Z,101559.75
2023-05-05T19:21:29.757Z,101556.38
2023-05-05T19:23:33.624Z,101559.16
2023-05-05T19:25:37.705Z,101563.63
2023-05-05T19:27:43.910Z,101561.22
2023-05-05T19:29:52.054Z,101562.22
2023-05-05T19:31:55.661Z,101568.56
2023-05-05T19:34:02.116Z,101567.88
2023-05-05T19:36:05.903Z,101563.72
2023-05-05T19:38:10.952Z,101571.75
2023-05-05T19:40:14.554Z,101576.38
2023-05-05T19:42:18.524Z,101572.25
2023-05-05T19:44:22.929Z,101575.19
2023-05-05T19:46:26.953Z,101570.09
2023-05-05T19:48:30.330Z,101564.25
2023-05-05T19:50:33.688Z,101569.66
2023-05-05T19:52:38.479Z,101575.00
2023-05-05T19:54:43.598Z,101568.28
2023-05-05T19:56:46.958Z,101574.50
2023-05-05T19:58:57.405Z,101566.88
2023-05-05T20:01:00.832Z,101566.03
2023-05-05T20:03:04.360Z,101563.56
2023-05-05T20:05:08.354Z,101559.34
2023-05-05T20:07:11.665Z,101557.81
2023-05-05T20:09:15.330Z,101548.47
2023-05-05T20:11:21.288Z,101547.81
2023-05-05T20:13:24.598Z,101540.13
2023-05-05T20:15:28.124Z,101538.59
2023-05-05T20:17:31.511Z,101533.50
2023-05-05T20:19:34.929Z,101528.56
2023-05-05T20:21:38.268Z,101521.78
2023-05-05T20:23:42.888Z,101522.97
2023-05-05T20:25:46.205Z,101517.03
2023-05-05T20:27:53.902Z,101513.81
2023-05-05T20:29:57.575Z,101512.25
2023-05-05T20:32:01.010Z,101504.56
2023-05-05T20:34:04.286Z,101508.19
2023-05-05T20:36:08.289Z,101498.72
2023-05-05T20:38:11.855Z,101493.63
2023-05-05T20:40:15.130Z,101485.03
2023-05-05T20:42:18.478Z,101489.50
2023-05-05T20:44:23.182Z,101479.97
2023-05-05T20:46:26.537Z,101486.13
2023-05-05T20:48:30.158Z,101474.88
2023-05-05T20:50:33.578Z,101479.34
2023-05-05T20:52:36.993Z,101481.19
2023-05-05T20:54:40.324Z,101480.41
2023-05-05T20:56:43.638Z,101466.56
2023-05-05T20:58:46.917Z,101468.47
2023-05-05T21:00:51.935Z,101478.25
2023-05-05T21:02:57.016Z,101469.88
2023-05-05T21:05:03.071Z,101471.00
2023-05-05T21:07:07.126Z,101477.31
2023-05-05T21:09:10.438Z,101474.06
2023-05-05T21:11:14.226Z,101468.22
2023-05-05T21:13:17.578Z,101471.91
2023-05-05T21:15:20.947Z,101469.59
2023-05-05T21:17:25.928Z,101477.72
2023-05-05T21:19:29.192Z,101478.94
2023-05-05T21:21:32.796Z,101471.28
2023-05-05T21:23:36.143Z,101486.22
2023-05-05T21:25:39.526Z,101481.16
2023-05-05T21:27:42.960Z,101485.66
2023-05-05T21:29:46.223Z,101489.19
2023-05-05T21:31:49.588Z,101497.09
2023-05-05T21:33:54.327Z,101491.16
2023-05-05T21:35:57.637Z,101486.09
2023-05-05T21:38:01.399Z,101484.44
2023-05-05T21:40:05.448Z,101486.34
2023-05-05T21:42:08.808Z,101474.25
2023-05-05T21:44:12.142Z,101476.19
2023-05-05T21:46:17.271Z,101477.16
2023-05-05T21:48:21.021Z,101483.25
2023-05-05T21:50:27.535Z,101483.25
2023-05-05T21:52:31.547Z,101480.69
2023-05-05T21:54:34.836Z,101484.22
2023-05-05T21:56:38.736Z,101480.84
2023-05-05T21:58:42.194Z,101474.81
2023-05-05T22:00:45.697Z,101480.91
2023-05-05T22:02:49.061Z,101488.72
2023-05-05T22:04:52.546Z,101487.88
2023-05-05T22:06:57.643Z,101487.03
2023-05-05T22:09:01.310Z,101489.66
2023-05-05T22:11:04.690Z,101486.19
2023-05-05T22:13:10.618Z,101485.34
2023-05-05T22:15:14.112Z,101487.97
2023-05-05T22:17:17.420Z,101487.03
2023-05-05T22:19:22.942Z,101493.19
2023-05-05T22:21:27.549Z,101494.88
2023-05-05T22:23:32.264Z,101493.09
2023-05-05T22:25:35.663Z,101498.34
2023-05-05T22:27:39.073Z,101501.00
2023-05-05T22:29:42.545Z,101494.94
2023-05-05T22:31:46.065Z,101494.09
2023-05-05T22:33:49.375Z,101494.09
2023-05-05T22:35:53.357Z,101492.41
2023-05-05T22:37:56.831Z,101501.94
2023-05-05T22:40:01.787Z,101499.31
2023-05-05T22:42:05.293Z,101494.09
2023-05-05T22:44:08.739Z,101499.31
2023-05-05T22:46:12.155Z,101497.63
2023-05-05T22:48:15.520Z,101499.38
2023-05-05T22:50:18.836Z,101503.75
2023-05-05T22:52:22.225Z,101499.44
2023-05-05T22:54:25.616Z,101499.44
2023-05-05T22:56:30.395Z,101505.59
2023-05-05T22:58:33.717Z,101511.72
2023-05-05T23:00:37.127Z,101510.94
2023-05-05T23:02:41.647Z,101506.63
2023-05-05T23:04:45.467Z,101504.03
2023-05-05T23:06:48.785Z,101511.00
2023-05-05T23:08:52.172Z,101502.31
2023-05-05T23:10:55.567Z,101499.72
2023-05-05T23:13:00.336Z,101498.03
2023-05-05T23:15:03.671Z,101498.88
2023-05-05T23:17:07.128Z,101502.31
2023-05-05T23:19:10.541Z,101497.09
2023-05-05T23:21:13.854Z,101500.56
2023-05-05T23:23:17.154Z,101499.72
2023-05-05T23:25:20.474Z,101500.63
2023-05-05T23:27:24.062Z,101505.09
2023-05-05T23:29:28.839Z,101508.63
2023-05-05T23:31:32.261Z,101510.38
2023-05-05T23:33:35.547Z,101506.03
2023-05-05T23:35:39.536Z,101510.31
2023-05-05T23:37:42.796Z,101506.94
2023-05-05T23:39:45.990Z,101505.25
2023-05-05T23:41:49.146Z,101507.84
2023-05-05T23:43:52.351Z,101513.13
2023-05-05T23:45:57.204Z,101509.69
2023-05-05T23:48:00.418Z,101511.44
2023-05-05T23:50:03.918Z,101507.06
2023-05-05T23:52:07.134Z,101510.59
2023-05-05T23:54:10.329Z,101507.19